createdAt,value
2023-02-12T00:00:21.283Z,18.40
2023-02-12T00:02:38.044Z,19.00
2023-02-12T00:04:54.724Z,15.52
2023-02-12T00:07:11.422Z,14.70
2023-02-12T00:09:27.915Z,16.23
2023-02-12T00:11:44.320Z,15.95
2023-02-12T00:14:02.853Z,16.10
2023-02-12T00:16:19.565Z,14.75
2023-02-12T00:18:35.944Z,15.18
2023-02-12T00:20:52.351Z,17.38
2023-02-12T00:23:08.808Z,13.15
2023-02-12T00:25:25.295Z,15.35
2023-02-12T00:27:41.628Z,19.90
2023-02-12T00:29:58.367Z,19.55
2023-02-12T00:32:15.179Z,18.23
2023-02-12T00:34:31.874Z,18.50
2023-02-12T00:36:48.558Z,18.48
2023-02-12T00:39:05.029Z,19.48
2023-02-12T00:41:21.463Z,16.92
2023-02-12T00:43:38.081Z,18.40
2023-02-12T00:45:55.058Z,17.52
2023-02-12T00:48:11.790Z,17.60
2023-02-12T00:50:30.762Z,19.23
2023-02-12T00:52:48.446Z,21.35
2023-02-12T00:55:05.130Z,16.95
2023-02-12T00:57:21.493Z,19.02
2023-02-12T00:59:37.916Z,20.88
2023-02-12T01:01:54.453Z,22.55
2023-02-12T01:04:10.906Z,23.40
2023-02-12T01:06:27.377Z,26.35
2023-02-12T01:08:44.151Z,22.90
2023-02-12T01:11:00.853Z,21.08
2023-02-12T01:13:17.496Z,19.38
2023-02-12T01:15:34.108Z,18.88
2023-02-12T01:17:50.751Z,18.27
2023-02-12T01:20:07.249Z,19.55
2023-02-12T01:22:23.570Z,19.60
2023-02-12T01:24:39.974Z,19.40
2023-02-12T01:26:56.708Z,20.13
2023-02-12T01:29:13.442Z,22.23
2023-02-12T01:31:29.926Z,22.90
2023-02-12T01:33:46.416Z,24.13
2023-02-12T01:36:02.833Z,24.35
2023-02-12T01:38:19.300Z,21.55
2023-02-12T01:40:35.696Z,24.75
2023-02-12T01:42:52.078Z,21.67
2023-02-12T01:45:08.439Z,21.17
2023-02-12T01:47:24.956Z,23.50
2023-02-12T01:49:41.436Z,25.52
2023-02-12T01:51:58.173Z,23.45
2023-02-12T01:54:14.652Z,21.30
2023-02-12T01:56:31.342Z,22.20
2023-02-12T01:58:48.016Z,27.85
2023-02-12T02:01:04.547Z,27.80
2023-02-12T02:03:21.041Z,27.67
2023-02-12T02:05:37.417Z,22.33
2023-02-12T02:07:55.021Z,22.88
2023-02-12T02:10:11.647Z,25.23
2023-02-12T02:12:27.954Z,24.75
2023-02-12T02:14:44.613Z,24.88
2023-02-12T02:17:01.287Z,25.55
2023-02-12T02:19:17.710Z,22.35
2023-02-12T02:21:34.179Z,21.77
2023-02-12T02:23:50.907Z,22.10
2023-02-12T02:26:07.340Z,22.25
2023-02-12T02:28:23.791Z,24.15
2023-02-12T02:30:40.208Z,22.98
2023-02-12T02:32:56.706Z,23.70
2023-02-12T02:35:13.130Z,25.40
2023-02-12T02:37:29.632Z,24.95
2023-02-12T02:39:46.062Z,26.67
2023-02-12T02:42:02.537Z,26.40
2023-02-12T02:44:19.189Z,24.27
2023-02-12T02:46:35.991Z,24.70
2023-02-12T02:48:52.489Z,23.92
2023-02-12T02:51:09.163Z,23.45
2023-02-12T02:53:25.633Z,23.90
2023-02-12T02:55:42.133Z,24.98
2023-02-12T02:57:58.754Z,24.70
2023-02-12T03:00:15.395Z,23.98
2023-02-12T03:02:31.878Z,24.33
2023-02-12T03:04:48.379Z,24.40
2023-02-12T03:07:04.858Z,26.60
2023-02-12T03:09:21.319Z,25.98
2023-02-12T03:11:38.042Z,24.98
2023-02-12T03:13:54.410Z,23.20
2023-02-12T03:16:11.194Z,24.45
2023-02-12T03:18:27.636Z,24.00
2023-02-12T03:20:44.075Z,24.05
2023-02-12T03:23:00.409Z,23.63
2023-02-12T03:25:16.835Z,22.83
2023-02-12T03:27:33.596Z,27.33
2023-02-12T03:29:49.911Z,24.65
2023-02-12T03:32:06.330Z,25.02
2023-02-12T03:34:22.803Z,23.25
2023-02-12T03:36:39.508Z,22.42
2023-02-12T03:38:55.926Z,25.70
2023-02-12T03:41:12.373Z,27.88
2023-02-12T03:43:28.791Z,29.02
2023-02-12T03:45:45.258Z,25.10
2023-02-12T03:48:02.053Z,27.67
2023-02-12T03:50:18.487Z,25.80
2023-02-12T03:52:34.955Z,27.02
2023-02-12T03:54:51.458Z,24.58
2023-02-12T03:57:08.081Z,24.83
2023-02-12T03:59:24.502Z,26.05
2023-02-12T04:01:41.240Z,26.85
2023-02-12T04:03:58.058Z,30.50
2023-02-12T04:06:14.506Z,27.20
2023-02-12T04:08:30.958Z,25.30
2023-02-12T04:10:47.571Z,24.33
2023-02-12T04:13:04.057Z,26.15
2023-02-12T04:15:20.796Z,27.98
2023-02-12T04:17:37.566Z,25.20
2023-02-12T04:19:55.435Z,26.17
2023-02-12T04:22:11.866Z,26.33
2023-02-12T04:24:28.578Z,29.10
2023-02-12T04:26:45.200Z,26.80
2023-02-12T04:29:01.700Z,27.85
2023-02-12T04:31:18.253Z,30.10
2023-02-12T04:33:34.637Z,32.20
2023-02-12T04:35:51.277Z,34.40
2023-02-12T04:38:07.961Z,30.58
2023-02-12T04:40:24.440Z,31.85
2023-02-12T04:42:40.927Z,34.05
2023-02-12T04:44:57.610Z,34.05
2023-02-12T04:47:14.018Z,34.03
2023-02-12T04:49:30.558Z,29.77
2023-02-12T04:51:47.004Z,33.97
2023-02-12T04:54:03.379Z,31.95
2023-02-12T04:56:20.028Z,30.52
2023-02-12T04:58:36.494Z,32.80
2023-02-12T05:00:53.190Z,29.00
2023-02-12T05:03:09.865Z,34.00
2023-02-12T05:05:26.601Z,31.35
2023-02-12T05:07:43.085Z,32.05
2023-02-12T05:09:59.416Z,31.77
2023-02-12T05:12:18.297Z,32.38
2023-02-12T05:14:34.686Z,35.95
2023-02-12T05:16:51.416Z,30.38
2023-02-12T05:19:07.846Z,35.17
2023-02-12T05:21:24.284Z,34.55
2023-02-12T05:23:40.954Z,33.67
2023-02-12T05:25:57.486Z,34.20
2023-02-12T05:28:14.044Z,33.30
2023-02-12T05:30:30.508Z,34.50
2023-02-12T05:32:46.951Z,32.00
2023-02-12T05:35:03.677Z,33.63
2023-02-12T05:37:20.356Z,31.45
2023-02-12T05:39:36.735Z,31.77
2023-02-12T05:41:53.199Z,34.88
2023-02-12T05:44:09.668Z,32.75
2023-02-12T05:46:26.443Z,33.95
2023-02-12T05:48:42.919Z,33.45
2023-02-12T05:50:59.595Z,36.70
2023-02-12T05:53:16.374Z,33.20
2023-02-12T05:55:32.779Z,36.25
2023-02-12T05:57:49.473Z,28.88
2023-02-12T06:00:06.180Z,33.25
2023-02-12T06:02:22.907Z,35.65
2023-02-12T06:04:39.316Z,41.05
2023-02-12T06:06:55.816Z,46.47
2023-02-12T06:09:12.507Z,40.33
2023-02-12T06:11:28.932Z,37.00
2023-02-12T06:13:45.341Z,36.42
2023-02-12T06:16:01.726Z,34.15
2023-02-12T06:18:18.133Z,34.00
2023-02-12T06:20:34.552Z,38.00
2023-02-12T06:22:50.979Z,33.92
2023-02-12T06:25:07.488Z,35.53
2023-02-12T06:27:24.154Z,32.97
2023-02-12T06:29:40.646Z,33.97
2023-02-12T06:31:57.410Z,31.60
2023-02-12T06:34:14.212Z,32.03
2023-02-12T06:36:30.553Z,35.65
2023-02-12T06:38:47.247Z,34.70
2023-02-12T06:41:03.716Z,38.70
2023-02-12T06:43:20.150Z,34.28
2023-02-12T06:45:36.885Z,37.05
2023-02-12T06:47:53.215Z,37.67
2023-02-12T06:50:09.563Z,39.70
2023-02-12T06:52:26.234Z,37.97
2023-02-12T06:54:42.869Z,35.88
2023-02-12T06:56:59.194Z,36.75
2023-02-12T06:59:15.860Z,38.35
2023-02-12T07:01:32.556Z,34.92
2023-02-12T07:03:49.347Z,41.88
2023-02-12T07:06:06.046Z,38.40
2023-02-12T07:08:22.555Z,38.85
2023-02-12T07:10:38.911Z,37.92
2023-02-12T07:12:55.366Z,36.15
2023-02-12T07:15:11.920Z,40.50
2023-02-12T07:17:28.420Z,42.00
2023-02-12T07:19:44.712Z,33.97
2023-02-12T07:22:01.392Z,37.95
2023-02-12T07:24:17.882Z,39.63
2023-02-12T07:26:34.323Z,40.72
2023-02-12T07:28:50.748Z,40.85
2023-02-12T07:31:07.575Z,45.20
2023-02-12T07:33:24.442Z,50.15
2023-02-12T07:35:40.876Z,45.67
2023-02-12T07:37:57.294Z,45.55
2023-02-12T07:40:13.923Z,46.25
2023-02-12T07:42:30.373Z,47.33
2023-02-12T07:44:46.644Z,44.47
2023-02-12T07:47:03.393Z,43.45
2023-02-12T07:49:19.983Z,52.35
2023-02-12T07:51:36.669Z,51.70
2023-02-12T07:53:53.188Z,50.80
2023-02-12T07:56:09.738Z,52.45
2023-02-12T07:58:26.250Z,49.80
2023-02-12T08:00:42.693Z,55.40
2023-02-12T08:02:59.295Z,54.13
2023-02-12T08:05:15.672Z,55.92
2023-02-12T08:07:32.425Z,57.33
2023-02-12T08:09:48.827Z,64.78
2023-02-12T08:12:05.301Z,66.35
2023-02-12T08:14:23.084Z,78.82
2023-02-12T08:16:39.688Z,76.45
2023-02-12T08:19:02.348Z,76.88
2023-02-12T08:21:24.140Z,75.75
2023-02-12T08:23:40.925Z,82.90
2023-02-12T08:25:57.792Z,80.25
2023-02-12T08:28:14.447Z,80.55
2023-02-12T08:30:31.236Z,92.25
2023-02-12T08:32:47.727Z,80.72
2023-02-12T08:35:04.053Z,77.07
2023-02-12T08:37:20.832Z,77.03
2023-02-12T08:39:37.353Z,77.35
2023-02-12T08:41:54.028Z,76.35
2023-02-12T08:44:10.511Z,73.55
2023-02-12T08:46:27.342Z,67.13
2023-02-12T08:48:43.913Z,71.40
2023-02-12T08:51:00.621Z,75.65
2023-02-12T08:53:17.724Z,75.50
2023-02-12T08:55:34.511Z,66.28
2023-02-12T08:57:52.050Z,73.13
2023-02-12T09:00:08.594Z,64.35
2023-02-12T09:02:25.085Z,66.20
2023-02-12T09:04:41.546Z,60.63
2023-02-12T09:06:58.305Z,67.28
2023-02-12T09:09:14.814Z,64.28
2023-02-12T09:11:31.336Z,67.07
2023-02-12T09:13:47.881Z,65.53
2023-02-12T09:16:04.609Z,62.67
2023-02-12T09:18:21.144Z,62.90
2023-02-12T09:20:37.626Z,60.03
2023-02-12T09:22:54.118Z,60.33
2023-02-12T09:25:10.598Z,61.47
2023-02-12T09:27:28.238Z,56.80
2023-02-12T09:29:46.566Z,62.50
2023-02-12T09:32:03.206Z,63.90
2023-02-12T09:34:20.010Z,58.55
2023-02-12T09:36:36.537Z,63.20
2023-02-12T09:38:53.374Z,62.42
2023-02-12T09:41:10.154Z,61.83
2023-02-12T09:43:26.946Z,61.22
2023-02-12T09:45:43.484Z,65.30
2023-02-12T09:47:59.839Z,63.58
2023-02-12T09:50:16.344Z,58.92
2023-02-12T09:52:33.111Z,58.08
2023-02-12T09:54:49.951Z,63.05
2023-02-12T09:57:06.680Z,60.65
2023-02-12T09:59:23.084Z,61.47
2023-02-12T10:01:39.923Z,58.92
2023-02-12T10:03:56.313Z,56.83
2023-02-12T10:06:12.828Z,61.03
2023-02-12T10:08:29.697Z,52.40
2023-02-12T10:10:46.065Z,56.08
2023-02-12T10:13:02.458Z,56.85
2023-02-12T10:15:19.144Z,62.50
2023-02-12T10:17:35.563Z,60.10
2023-02-12T10:19:51.993Z,54.65
2023-02-12T10:22:08.628Z,53.35
2023-02-12T10:24:25.155Z,55.95
2023-02-12T10:26:41.829Z,53.50
2023-02-12T10:28:58.597Z,56.60
2023-02-12T10:31:15.065Z,55.45
2023-02-12T10:33:31.595Z,51.97
2023-02-12T10:35:48.361Z,59.70
2023-02-12T10:38:04.775Z,53.88
2023-02-12T10:40:21.459Z,55.97
2023-02-12T10:42:38.142Z,54.72
2023-02-12T10:44:54.921Z,62.13
2023-02-12T10:47:11.396Z,53.42
2023-02-12T10:49:28.181Z,57.35
2023-02-12T10:51:44.714Z,51.90
2023-02-12T10:54:01.150Z,55.53
2023-02-12T10:56:17.873Z,53.88
2023-02-12T10:58:34.417Z,54.92
2023-02-12T11:00:50.733Z,54.45
2023-02-12T11:03:07.476Z,59.33
2023-02-12T11:05:23.930Z,58.58
2023-02-12T11:07:40.198Z,56.13
2023-02-12T11:09:56.902Z,56.75
2023-02-12T11:12:13.430Z,55.90
2023-02-12T11:14:29.837Z,57.17
2023-02-12T11:16:46.527Z,58.75
2023-02-12T11:19:03.322Z,68.82
2023-02-12T11:21:20.081Z,60.38
2023-02-12T11:23:36.624Z,58.75
2023-02-12T11:25:53.132Z,54.20
2023-02-12T11:28:09.970Z,55.38
2023-02-12T11:30:26.589Z,57.05
2023-02-12T11:32:43.332Z,58.47
2023-02-12T11:35:00.008Z,57.13
2023-02-12T11:37:16.465Z,56.95
2023-02-12T11:39:33.173Z,58.95
2023-02-12T11:41:49.646Z,51.15
2023-02-12T11:44:06.143Z,49.00
2023-02-12T11:46:22.909Z,49.78
2023-02-12T11:48:39.423Z,50.90
2023-02-12T11:50:56.183Z,50.67
2023-02-12T11:53:12.515Z,48.67
2023-02-12T11:55:30.561Z,50.95
2023-02-12T11:57:49.040Z,47.92
2023-02-12T12:00:05.691Z,47.85
2023-02-12T12:02:22.305Z,47.67
2023-02-12T12:04:38.947Z,44.80
2023-02-12T12:06:55.612Z,43.67
2023-02-12T12:09:12.123Z,44.88
2023-02-12T12:11:28.472Z,42.80
2023-02-12T12:13:44.912Z,43.33
2023-02-12T12:16:01.304Z,42.90
2023-02-12T12:18:17.933Z,39.60
2023-02-12T12:20:34.563Z,38.28
2023-02-12T12:22:51.358Z,38.05
2023-02-12T12:25:08.081Z,35.45
2023-02-12T12:27:24.575Z,52.33
2023-02-12T12:29:41.029Z,46.65
2023-02-12T12:31:57.751Z,40.20
2023-02-12T12:34:14.485Z,38.72
2023-02-12T12:36:30.758Z,33.72
2023-02-12T12:38:47.161Z,32.63
2023-02-12T12:41:03.797Z,30.23
2023-02-12T12:43:20.173Z,27.27
2023-02-12T12:45:36.924Z,32.22
2023-02-12T12:47:53.372Z,28.35
2023-02-12T12:50:09.834Z,27.20
2023-02-12T12:52:26.534Z,26.65
2023-02-12T12:54:42.984Z,24.70
2023-02-12T12:56:59.722Z,25.55
2023-02-12T12:59:16.462Z,23.27
2023-02-12T13:01:33.022Z,19.30
2023-02-12T13:03:49.789Z,17.02
2023-02-12T13:06:06.522Z,17.92
2023-02-12T13:08:23.323Z,16.27
2023-02-12T13:10:39.912Z,14.60
2023-02-12T13:12:56.322Z,17.70
2023-02-12T13:15:13.045Z,15.07
2023-02-12T13:17:29.476Z,16.08
2023-02-12T13:19:45.921Z,16.70
2023-02-12T13:22:02.332Z,18.60
2023-02-12T13:24:18.764Z,18.52
2023-02-12T13:26:35.417Z,14.77
2023-02-12T13:28:51.758Z,13.15
2023-02-12T13:31:30.018Z,11.88
2023-02-12T13:33:44.621Z,10.95
2023-02-12T13:36:01.085Z,12.90
2023-02-12T13:38:17.435Z,13.90
2023-02-12T13:40:33.902Z,12.10
2023-02-12T13:42:50.543Z,14.18
2023-02-12T13:45:06.965Z,12.35
2023-02-12T13:47:23.633Z,13.35
2023-02-12T13:49:40.082Z,13.80
2023-02-12T13:51:56.764Z,14.13
2023-02-12T13:54:13.228Z,15.57
2023-02-12T13:56:29.994Z,17.38
2023-02-12T13:58:46.603Z,15.93
2023-02-12T14:01:03.401Z,16.58
2023-02-12T14:03:19.851Z,15.88
2023-02-12T14:05:36.650Z,17.20
2023-02-12T14:07:53.395Z,17.50
2023-02-12T14:10:09.833Z,19.70
2023-02-12T14:12:26.313Z,17.00
2023-02-12T14:14:43.049Z,16.80
2023-02-12T14:16:59.546Z,19.08
2023-02-12T14:19:15.962Z,19.88
2023-02-12T14:21:32.486Z,17.77
2023-02-12T14:23:49.218Z,19.00
2023-02-12T14:26:05.777Z,22.95
2023-02-12T14:28:22.160Z,22.65
2023-02-12T14:30:40.301Z,20.42
2023-02-12T14:32:56.905Z,18.60
2023-02-12T14:35:13.422Z,21.58
2023-02-12T14:37:29.921Z,22.23
2023-02-12T14:39:46.370Z,22.73
2023-02-12T14:42:02.805Z,21.13
2023-02-12T14:44:19.126Z,24.30
2023-02-12T14:46:35.595Z,23.67
2023-02-12T14:48:52.098Z,23.15
2023-02-12T14:51:08.789Z,24.63
2023-02-12T14:53:25.275Z,22.42
2023-02-12T14:55:41.774Z,23.27
2023-02-12T14:57:58.515Z,23.70
2023-02-12T15:00:16.270Z,22.77
2023-02-12T15:02:32.707Z,24.70
2023-02-12T15:04:49.113Z,22.85
2023-02-12T15:07:05.483Z,25.90
2023-02-12T15:09:21.949Z,22.42
2023-02-12T15:11:38.376Z,25.15
2023-02-12T15:13:56.226Z,25.58
2023-02-12T15:16:12.724Z,57.00
2023-02-12T15:18:29.194Z,49.17
2023-02-12T15:20:45.649Z,37.47
2023-02-12T15:23:02.375Z,36.65
2023-02-12T15:25:19.011Z,28.58
2023-02-12T15:27:35.530Z,25.42
2023-02-12T15:29:52.037Z,26.65
2023-02-12T15:32:08.543Z,23.23
2023-02-12T15:34:24.990Z,22.40
2023-02-12T15:36:41.726Z,26.35
2023-02-12T15:38:58.093Z,24.55
2023-02-12T15:41:14.486Z,23.38
2023-02-12T15:43:31.169Z,24.50
2023-02-12T15:45:47.865Z,25.23
2023-02-12T15:48:04.242Z,24.77
2023-02-12T15:50:20.942Z,26.30
2023-02-12T15:52:37.387Z,24.45
2023-02-12T15:54:53.885Z,26.75
2023-02-12T15:57:10.355Z,26.15
2023-02-12T15:59:29.048Z,31.23
2023-02-12T16:01:45.793Z,28.17
2023-02-12T16:04:02.615Z,26.90
2023-02-12T16:06:19.250Z,27.08
2023-02-12T16:08:35.788Z,24.98
2023-02-12T16:10:52.509Z,25.85
2023-02-12T16:13:09.278Z,28.75
2023-02-12T16:15:25.608Z,26.52
2023-02-12T16:17:42.091Z,26.60
2023-02-12T16:19:58.735Z,27.80
2023-02-12T16:22:15.332Z,25.05
2023-02-12T16:24:31.704Z,29.30
2023-02-12T16:26:48.344Z,25.88
2023-02-12T16:29:04.755Z,27.15
2023-02-12T16:31:21.341Z,27.90
2023-02-12T16:33:37.851Z,27.75
2023-02-12T16:35:54.814Z,27.48
2023-02-12T16:38:11.681Z,30.17
2023-02-12T16:40:28.251Z,28.20
2023-02-12T16:42:44.977Z,26.58
2023-02-12T16:45:01.730Z,28.55
2023-02-12T16:47:18.391Z,26.80
2023-02-12T16:49:34.777Z,24.02
2023-02-12T16:51:51.520Z,26.30
2023-02-12T16:54:08.029Z,25.02
2023-02-12T16:56:24.476Z,21.67
2023-02-12T16:58:40.974Z,24.85
2023-02-12T17:00:57.442Z,23.42
2023-02-12T17:03:14.253Z,26.90
2023-02-12T17:05:30.759Z,28.10
2023-02-12T17:07:47.237Z,26.30
2023-02-12T17:10:03.905Z,26.17
2023-02-12T17:12:20.375Z,26.77
2023-02-12T17:14:36.794Z,30.33
2023-02-12T17:16:53.232Z,26.73
2023-02-12T17:19:10.014Z,26.38
2023-02-12T17:21:26.710Z,27.48
2023-02-12T17:23:43.533Z,23.88
2023-02-12T17:26:00.356Z,25.10
2023-02-12T17:28:16.858Z,25.55
2023-02-12T17:30:33.255Z,26.10
2023-02-12T17:32:51.341Z,29.67
2023-02-12T17:35:07.989Z,33.00
2023-02-12T17:37:24.346Z,34.78
2023-02-12T17:39:41.096Z,37.50
2023-02-12T17:41:57.827Z,30.73
2023-02-12T17:44:14.376Z,31.27
2023-02-12T17:46:31.039Z,31.13
2023-02-12T17:48:48.233Z,30.55
2023-02-12T17:51:05.182Z,30.95
2023-02-12T17:53:21.948Z,29.92
2023-02-12T17:55:38.420Z,29.45
2023-02-12T17:57:54.943Z,29.60
2023-02-12T18:00:11.440Z,28.25
2023-02-12T18:02:28.129Z,25.65
2023-02-12T18:04:44.732Z,27.08
2023-02-12T18:07:01.137Z,22.75
2023-02-12T18:09:18.552Z,25.05
2023-02-12T18:11:35.315Z,23.58
2023-02-12T18:13:51.742Z,29.08
2023-02-12T18:16:09.148Z,24.65
2023-02-12T18:18:25.889Z,26.08
2023-02-12T18:20:42.317Z,23.58
2023-02-12T18:22:58.781Z,19.70
2023-02-12T18:25:16.812Z,21.95
2023-02-12T18:27:34.190Z,23.42
2023-02-12T18:29:50.742Z,24.30
2023-02-12T18:32:07.230Z,22.58
2023-02-12T18:34:23.721Z,22.67
2023-02-12T18:36:40.465Z,23.98
2023-02-12T18:38:56.905Z,20.55
2023-02-12T18:41:13.712Z,22.92
2023-02-12T18:43:30.251Z,22.02
2023-02-12T18:45:46.605Z,22.27
2023-02-12T18:48:03.342Z,22.98
2023-02-12T18:50:19.855Z,25.05
2023-02-12T18:52:36.533Z,24.75
2023-02-12T18:54:53.285Z,20.58
2023-02-12T18:57:09.742Z,21.92
2023-02-12T18:59:27.404Z,23.15
2023-02-12T19:01:44.314Z,30.15
2023-02-12T19:04:01.124Z,24.50
2023-02-12T19:06:17.709Z,20.85
2023-02-12T19:08:34.449Z,21.65
2023-02-12T19:10:50.938Z,25.33
2023-02-12T19:13:07.579Z,21.08
2023-02-12T19:15:24.164Z,23.40
2023-02-12T19:17:40.924Z,27.67
2023-02-12T19:19:57.443Z,27.65
2023-02-12T19:22:13.788Z,21.85
2023-02-12T19:24:45.572Z,23.92
2023-02-12T19:27:03.136Z,22.38
2023-02-12T19:29:19.602Z,23.58
2023-02-12T19:31:36.227Z,22.85
2023-02-12T19:33:52.777Z,23.02
2023-02-12T19:36:09.104Z,21.35
2023-02-12T19:38:25.600Z,23.15
2023-02-12T19:40:42.071Z,21.92
2023-02-12T19:42:58.437Z,23.63
2023-02-12T19:45:14.746Z,21.48
2023-02-12T19:47:31.480Z,23.02
2023-02-12T19:49:48.022Z,21.90
2023-02-12T19:52:04.821Z,21.80
2023-02-12T19:54:21.166Z,24.48
2023-02-12T19:56:37.880Z,23.52
2023-02-12T19:58:54.395Z,22.55
2023-02-12T20:01:10.817Z,23.83
2023-02-12T20:03:27.601Z,23.35
2023-02-12T20:05:44.112Z,21.52
2023-02-12T20:08:00.946Z,19.95
2023-02-12T20:10:18.445Z,20.33
2023-02-12T20:12:34.966Z,22.65
2023-02-12T20:14:51.304Z,20.80
2023-02-12T20:17:08.003Z,20.70
2023-02-12T20:19:24.415Z,21.15
2023-02-12T20:21:41.133Z,26.77
2023-02-12T20:23:57.641Z,22.48
2023-02-12T20:26:14.072Z,21.42
2023-02-12T20:28:30.671Z,20.30
2023-02-12T20:30:47.278Z,20.45
2023-02-12T20:33:03.871Z,20.80
2023-02-12T20:35:20.336Z,23.38
2023-02-12T20:37:36.706Z,21.50
2023-02-12T20:39:52.993Z,23.42
2023-02-12T20:42:09.638Z,22.08
2023-02-12T20:44:26.318Z,23.30
2023-02-12T20:46:42.804Z,18.88
2023-02-12T20:48:59.532Z,22.45
2023-02-12T20:51:15.932Z,20.08
2023-02-12T20:53:32.604Z,20.15
2023-02-12T20:55:48.980Z,22.52
2023-02-12T20:58:05.695Z,23.60
2023-02-12T21:00:22.327Z,24.40
2023-02-12T21:02:39.090Z,23.55
2023-02-12T21:04:55.651Z,22.30
2023-02-12T21:07:12.041Z,22.45
2023-02-12T21:09:28.342Z,21.08
2023-02-12T21:11:45.075Z,22.55
2023-02-12T21:14:20.248Z,19.65
2023-02-12T21:16:37.692Z,20.50
2023-02-12T21:18:54.076Z,22.40
2023-02-12T21:21:10.761Z,24.00
2023-02-12T21:23:27.528Z,21.88
2023-02-12T21:25:43.969Z,20.73
2023-02-12T21:28:00.423Z,24.55
2023-02-12T21:30:16.801Z,23.23
2023-02-12T21:32:33.403Z,24.58
2023-02-12T21:34:49.965Z,29.00
2023-02-12T21:37:06.697Z,28.75
2023-02-12T21:39:23.182Z,29.58
2023-02-12T21:41:39.995Z,33.60
2023-02-12T21:43:56.459Z,36.33
2023-02-12T21:46:13.045Z,36.20
2023-02-12T21:48:29.457Z,41.78
2023-02-12T21:50:46.005Z,40.92
2023-02-12T21:53:02.674Z,43.78
2023-02-12T21:55:19.311Z,43.65
2023-02-12T21:57:36.023Z,39.55
2023-02-12T21:59:52.488Z,41.05
2023-02-12T22:02:09.180Z,41.58
2023-02-12T22:04:25.718Z,43.17
2023-02-12T22:06:42.450Z,41.08
2023-02-12T22:08:58.941Z,37.08
2023-02-12T22:11:15.686Z,40.85
2023-02-12T22:13:32.428Z,38.60
2023-02-12T22:15:49.031Z,43.10
2023-02-12T22:18:05.517Z,40.90
2023-02-12T22:20:21.983Z,38.17
2023-02-12T22:22:38.771Z,43.47
2023-02-12T22:24:55.495Z,40.75
2023-02-12T22:27:12.000Z,43.05
2023-02-12T22:29:28.917Z,38.40
2023-02-12T22:31:45.503Z,40.40
2023-02-12T22:34:01.997Z,41.03
2023-02-12T22:36:18.768Z,41.13
2023-02-12T22:38:35.510Z,42.88
2023-02-12T22:40:52.408Z,41.30
2023-02-12T22:43:08.810Z,41.88
2023-02-12T22:45:25.169Z,42.00
2023-02-12T22:47:41.887Z,42.33
2023-02-12T22:49:58.358Z,38.05
2023-02-12T22:52:15.024Z,40.53
2023-02-12T22:54:31.529Z,36.85
2023-02-12T22:56:48.160Z,43.08
2023-02-12T22:59:04.596Z,43.65
2023-02-12T23:01:21.057Z,41.38
2023-02-12T23:03:37.679Z,44.25
2023-02-12T23:05:54.324Z,38.05
2023-02-12T23:08:10.783Z,39.22
2023-02-12T23:10:27.488Z,39.47
2023-02-12T23:12:43.933Z,38.50
2023-02-12T23:15:00.378Z,35.58
2023-02-12T23:17:16.723Z,38.92
2023-02-12T23:19:33.161Z,37.28
2023-02-12T23:21:49.718Z,37.58
2023-02-12T23:24:06.188Z,38.10
2023-02-12T23:26:22.678Z,43.10
2023-02-12T23:28:39.112Z,43.13
2023-02-12T23:30:57.051Z,43.90
2023-02-12T23:33:13.978Z,44.67
2023-02-12T23:35:30.404Z,42.05
2023-02-12T23:37:46.807Z,38.53
2023-02-12T23:40:03.551Z,40.45
2023-02-12T23:42:20.277Z,40.05
2023-02-12T23:44:36.730Z,39.35
2023-02-12T23:46:53.136Z,41.33
2023-02-12T23:49:09.496Z,37.95
2023-02-12T23:51:25.838Z,38.53
2023-02-12T23:53:42.235Z,41.20
2023-02-12T23:55:58.677Z,38.13
2023-02-12T23:58:15.375Z,35.20
